KZR112 UBBB-UAAA
Flight info
| Callsign | KZR112 |
|---|---|
| Flight time | N/A |
| Altitude | 35000 |
| Route | NAMAS N35 RODAR A909 TUNEK B143 KRS A480 OTBOR/K0830F350 N147 GENDI Z621 ARBOL M610 TOMGO Z370 EKLAT |
| Aircraft | A21N/M-SDE3FGHIRWY/LB1 |
Departure
| Time | 2026-04-28 16:24 |
|---|---|
| Airport | Heydar Aliyev International Airport (UBBB) |
Arrival
| Time | N/A |
|---|---|
| Airport | Almaty International Airport (UAAA) |
| Time | Latitude | Longitude | Altitude | Speed | Heading |
|---|---|---|---|---|---|
| 2026-04-28 16:07 | 40.46754 | 50.05314 | 15 ft | 0 kts | 226° |
| 2026-04-28 16:09 | 40.46757 | 50.05318 | 15 ft | 2 kts | 226° |
| 2026-04-28 16:10 | 40.46778 | 50.05346 | 15 ft | 2 kts | 226° |
| 2026-04-28 16:10 | 40.46785 | 50.05363 | 15 ft | 2 kts | 256° |
| 2026-04-28 16:10 | 40.46781 | 50.05402 | 15 ft | 2 kts | 320° |
| 2026-04-28 16:11 | 40.46754 | 50.05418 | 15 ft | 1 kts | 331° |
| 2026-04-28 16:11 | 40.46750 | 50.05421 | 15 ft | 0 kts | 333° |
| 2026-04-28 16:14 | 40.46752 | 50.05420 | 15 ft | 0 kts | 333° |
| 2026-04-28 16:15 | 40.46775 | 50.05404 | 15 ft | 1 kts | 334° |
| 2026-04-28 16:15 | 40.46825 | 50.05388 | 15 ft | 8 kts | 356° |
| 2026-04-28 16:15 | 40.46852 | 50.05386 | 15 ft | 3 kts | 358° |
| 2026-04-28 16:16 | 40.46854 | 50.05386 | 15 ft | 0 kts | 358° |
| 2026-04-28 16:16 | 40.46897 | 50.05381 | 15 ft | 12 kts | 342° |
| 2026-04-28 16:17 | 40.46928 | 50.05122 | 15 ft | 15 kts | 268° |
| 2026-04-28 16:17 | 40.46925 | 50.04987 | 15 ft | 14 kts | 267° |
| 2026-04-28 16:17 | 40.46920 | 50.04857 | 15 ft | 14 kts | 268° |
| 2026-04-28 16:17 | 40.46917 | 50.04713 | 15 ft | 17 kts | 268° |
| 2026-04-28 16:18 | 40.46912 | 50.04543 | 15 ft | 19 kts | 268° |
| 2026-04-28 16:18 | 40.46904 | 50.04369 | 15 ft | 18 kts | 260° |
| 2026-04-28 16:18 | 40.46876 | 50.04207 | 15 ft | 17 kts | 256° |
| 2026-04-28 16:18 | 40.46840 | 50.04060 | 15 ft | 16 kts | 227° |
| 2026-04-28 16:19 | 40.46735 | 50.04062 | 15 ft | 16 kts | 159° |
| 2026-04-28 16:19 | 40.46625 | 50.04115 | 15 ft | 17 kts | 159° |
| 2026-04-28 16:19 | 40.46507 | 50.04174 | 15 ft | 18 kts | 159° |
| 2026-04-28 16:19 | 40.46381 | 50.04235 | 15 ft | 19 kts | 159° |
| 2026-04-28 16:20 | 40.46253 | 50.04298 | 15 ft | 20 kts | 159° |
| 2026-04-28 16:20 | 40.46119 | 50.04364 | 15 ft | 20 kts | 160° |
| 2026-04-28 16:20 | 40.45981 | 50.04431 | 15 ft | 21 kts | 160° |
| 2026-04-28 16:20 | 40.45839 | 50.04500 | 15 ft | 21 kts | 159° |
| 2026-04-28 16:21 | 40.45729 | 50.04546 | 15 ft | 9 kts | 193° |
| 2026-04-28 16:21 | 40.45683 | 50.04477 | 15 ft | 10 kts | 248° |
| 2026-04-28 16:21 | 40.45658 | 50.04388 | 15 ft | 10 kts | 253° |
| 2026-04-28 16:21 | 40.45639 | 50.04298 | 15 ft | 10 kts | 255° |
| 2026-04-28 16:22 | 40.45622 | 50.04209 | 15 ft | 10 kts | 257° |
| 2026-04-28 16:22 | 40.45615 | 50.04142 | 15 ft | 4 kts | 299° |
| 2026-04-28 16:22 | 40.45631 | 50.04130 | 15 ft | 0 kts | 347° |
| 2026-04-28 16:23 | 40.45632 | 50.04129 | 15 ft | 0 kts | 347° |
| 2026-04-28 16:23 | 40.45902 | 50.04046 | 15 ft | 73 kts | 346° |
| 2026-04-28 16:23 | 40.46614 | 50.03822 | 15 ft | 134 kts | 346° |
| 2026-04-28 16:24 | 40.47650 | 50.03485 | 207 ft | 164 kts | 347° |
| 2026-04-28 16:24 | 40.48722 | 50.03153 | 962 ft | 158 kts | 347° |
| 2026-04-28 16:24 | 40.49747 | 50.02800 | 1752 ft | 151 kts | 348° |
| 2026-04-28 16:24 | 40.50743 | 50.02473 | 2247 ft | 152 kts | 349° |
| 2026-04-28 16:25 | 40.51807 | 50.02145 | 2533 ft | 162 kts | 349° |
| 2026-04-28 16:25 | 40.52945 | 50.02235 | 2757 ft | 173 kts | 30° |
| 2026-04-28 16:25 | 40.53691 | 50.03521 | 3061 ft | 189 kts | 70° |
| 2026-04-28 16:25 | 40.53652 | 50.05307 | 3331 ft | 209 kts | 102° |
| 2026-04-28 16:26 | 40.53219 | 50.07178 | 3671 ft | 220 kts | 103° |
| 2026-04-28 16:26 | 40.52800 | 50.09204 | 3880 ft | 240 kts | 102° |
| 2026-04-28 16:26 | 40.52346 | 50.11406 | 4258 ft | 254 kts | 102° |
| 2026-04-28 16:26 | 40.51865 | 50.13683 | 4706 ft | 265 kts | 103° |
| 2026-04-28 16:27 | 40.51384 | 50.16030 | 5346 ft | 268 kts | 103° |
| 2026-04-28 16:27 | 40.50924 | 50.18374 | 6015 ft | 270 kts | 103° |
| 2026-04-28 16:27 | 40.49974 | 50.23195 | 7297 ft | 276 kts | 104° |
| 2026-04-28 16:28 | 40.49494 | 50.25607 | 7942 ft | 278 kts | 105° |
| 2026-04-28 16:28 | 40.49166 | 50.27242 | 8341 ft | 280 kts | 105° |
| 2026-04-28 16:28 | 40.48505 | 50.30535 | 9152 ft | 284 kts | 105° |
| 2026-04-28 16:28 | 40.48000 | 50.33038 | 9725 ft | 287 kts | 106° |
| 2026-04-28 16:29 | 40.46962 | 50.38173 | 10662 ft | 300 kts | 106° |
| 2026-04-28 16:29 | 40.45840 | 50.43695 | 11161 ft | 327 kts | 106° |
| 2026-04-28 16:30 | 40.45244 | 50.46632 | 11410 ft | 340 kts | 106° |
| 2026-04-28 16:30 | 40.44629 | 50.49662 | 11729 ft | 350 kts | 106° |
| 2026-04-28 16:30 | 40.44002 | 50.52752 | 12224 ft | 353 kts | 107° |
| 2026-04-28 16:30 | 40.43371 | 50.55857 | 12747 ft | 356 kts | 107° |
| 2026-04-28 16:31 | 40.42724 | 50.59033 | 13250 ft | 359 kts | 107° |
| 2026-04-28 16:31 | 40.42086 | 50.62158 | 13743 ft | 361 kts | 107° |
| 2026-04-28 16:31 | 40.41432 | 50.65351 | 14223 ft | 364 kts | 108° |
| 2026-04-28 16:31 | 40.40770 | 50.68583 | 14688 ft | 367 kts | 108° |
| 2026-04-28 16:32 | 40.40109 | 50.71806 | 15120 ft | 371 kts | 108° |
| 2026-04-28 16:32 | 40.38758 | 50.78378 | 15985 ft | 377 kts | 108° |
| 2026-04-28 16:32 | 40.38078 | 50.81676 | 16399 ft | 380 kts | 108° |
| 2026-04-28 16:33 | 40.37381 | 50.85056 | 16798 ft | 383 kts | 108° |
| 2026-04-28 16:33 | 40.36918 | 50.87290 | 17060 ft | 385 kts | 107° |
| 2026-04-28 16:33 | 40.36028 | 50.91841 | 17573 ft | 390 kts | 104° |
| 2026-04-28 16:33 | 40.35498 | 50.95329 | 17960 ft | 393 kts | 103° |
| 2026-04-28 16:34 | 40.34992 | 50.98833 | 18327 ft | 396 kts | 103° |
| 2026-04-28 16:34 | 40.34487 | 51.02368 | 18675 ft | 399 kts | 103° |
| 2026-04-28 16:34 | 40.33969 | 51.05970 | 19035 ft | 402 kts | 103° |
| 2026-04-28 16:34 | 40.33452 | 51.09560 | 19385 ft | 404 kts | 103° |
| 2026-04-28 16:35 | 40.32930 | 51.13170 | 19734 ft | 407 kts | 103° |
| 2026-04-28 16:35 | 40.32397 | 51.16841 | 20082 ft | 409 kts | 103° |
| 2026-04-28 16:35 | 40.31868 | 51.20475 | 20414 ft | 411 kts | 103° |
| 2026-04-28 16:35 | 40.31330 | 51.24160 | 20734 ft | 414 kts | 103° |
| 2026-04-28 16:36 | 40.30791 | 51.27841 | 21062 ft | 416 kts | 103° |
| 2026-04-28 16:36 | 40.30239 | 51.31605 | 21391 ft | 418 kts | 103° |
| 2026-04-28 16:36 | 40.29691 | 51.35329 | 21718 ft | 420 kts | 103° |
| 2026-04-28 16:36 | 40.29139 | 51.39076 | 22014 ft | 422 kts | 103° |
| 2026-04-28 16:37 | 40.28582 | 51.42839 | 22297 ft | 425 kts | 103° |
| 2026-04-28 16:37 | 40.28022 | 51.46617 | 22586 ft | 427 kts | 103° |
| 2026-04-28 16:37 | 40.27450 | 51.50468 | 22863 ft | 429 kts | 103° |
| 2026-04-28 16:38 | 40.26304 | 51.58162 | 23407 ft | 434 kts | 103° |
| 2026-04-28 16:38 | 40.25729 | 51.62011 | 23688 ft | 436 kts | 103° |
| 2026-04-28 16:38 | 40.25149 | 51.65883 | 23960 ft | 437 kts | 104° |
| 2026-04-28 16:38 | 40.24561 | 51.69794 | 24239 ft | 439 kts | 104° |
| 2026-04-28 16:39 | 40.23972 | 51.73711 | 24510 ft | 440 kts | 104° |
| 2026-04-28 16:39 | 40.23379 | 51.77640 | 24776 ft | 442 kts | 104° |
| 2026-04-28 16:39 | 40.22780 | 51.81591 | 25039 ft | 443 kts | 104° |
| 2026-04-28 16:39 | 40.22182 | 51.85535 | 25296 ft | 445 kts | 104° |
| 2026-04-28 16:40 | 40.21583 | 51.89477 | 25536 ft | 446 kts | 104° |
| 2026-04-28 16:40 | 40.20977 | 51.93451 | 25788 ft | 448 kts | 104° |
| 2026-04-28 16:40 | 40.20369 | 51.97429 | 26043 ft | 449 kts | 104° |
| 2026-04-28 16:40 | 40.19751 | 52.01452 | 26281 ft | 450 kts | 104° |
| 2026-04-28 16:41 | 40.19141 | 52.05428 | 26498 ft | 452 kts | 104° |
| 2026-04-28 16:41 | 40.18523 | 52.09440 | 26720 ft | 453 kts | 104° |
| 2026-04-28 16:41 | 40.17896 | 52.13504 | 26928 ft | 455 kts | 104° |
| 2026-04-28 16:41 | 40.17276 | 52.17521 | 27131 ft | 456 kts | 104° |
| 2026-04-28 16:42 | 40.16644 | 52.21598 | 27337 ft | 457 kts | 104° |
| 2026-04-28 16:42 | 40.16011 | 52.25670 | 27550 ft | 459 kts | 104° |
| 2026-04-28 16:42 | 40.15383 | 52.29707 | 27755 ft | 460 kts | 104° |
| 2026-04-28 16:42 | 40.14744 | 52.33796 | 27965 ft | 461 kts | 104° |
| 2026-04-28 16:43 | 40.14100 | 52.37915 | 28164 ft | 462 kts | 104° |
| 2026-04-28 16:43 | 40.13459 | 52.41989 | 28368 ft | 463 kts | 104° |
| 2026-04-28 16:43 | 40.12811 | 52.46112 | 28556 ft | 464 kts | 104° |
| 2026-04-28 16:43 | 40.12161 | 52.50235 | 28744 ft | 465 kts | 104° |
| 2026-04-28 16:44 | 40.11505 | 52.54385 | 28923 ft | 467 kts | 104° |
| 2026-04-28 16:44 | 40.10847 | 52.58540 | 29101 ft | 468 kts | 104° |
| 2026-04-28 16:44 | 40.10188 | 52.62695 | 29334 ft | 468 kts | 104° |
| 2026-04-28 16:44 | 40.09528 | 52.66849 | 29612 ft | 467 kts | 104° |
| 2026-04-28 16:45 | 40.08867 | 52.70996 | 29877 ft | 466 kts | 104° |
| 2026-04-28 16:45 | 40.08219 | 52.75063 | 30136 ft | 465 kts | 104° |
| 2026-04-28 16:45 | 40.07558 | 52.79191 | 30405 ft | 464 kts | 104° |
| 2026-04-28 16:45 | 40.06893 | 52.83341 | 30669 ft | 463 kts | 104° |
| 2026-04-28 16:46 | 40.06237 | 52.87411 | 30917 ft | 462 kts | 104° |
| 2026-04-28 16:46 | 40.05603 | 52.91484 | 31163 ft | 462 kts | 103° |
| 2026-04-28 16:46 | 40.05111 | 52.95626 | 31410 ft | 463 kts | 99° |
| 2026-04-28 16:46 | 40.04803 | 52.99829 | 31661 ft | 463 kts | 96° |
| 2026-04-28 16:47 | 40.04687 | 53.03995 | 31910 ft | 463 kts | 92° |
| 2026-04-28 16:47 | 40.04758 | 53.08173 | 32158 ft | 463 kts | 89° |
| 2026-04-28 16:47 | 40.05020 | 53.12360 | 32414 ft | 463 kts | 85° |
| 2026-04-28 16:47 | 40.05406 | 53.16530 | 32661 ft | 462 kts | 84° |
| 2026-04-28 16:48 | 40.05804 | 53.20643 | 32909 ft | 462 kts | 84° |
| 2026-04-28 16:48 | 40.06205 | 53.24788 | 33120 ft | 461 kts | 84° |
| 2026-04-28 16:48 | 40.06598 | 53.28918 | 33337 ft | 461 kts | 84° |
| 2026-04-28 16:48 | 40.06987 | 53.33052 | 33540 ft | 461 kts | 84° |
| 2026-04-28 16:49 | 40.07373 | 53.37191 | 33718 ft | 461 kts | 84° |
| 2026-04-28 16:49 | 40.07758 | 53.41356 | 33870 ft | 462 kts | 84° |
| 2026-04-28 16:49 | 40.08141 | 53.45526 | 34026 ft | 462 kts | 84° |
| 2026-04-28 16:49 | 40.08518 | 53.49648 | 34180 ft | 463 kts | 84° |
| 2026-04-28 16:50 | 40.08899 | 53.53826 | 34311 ft | 463 kts | 84° |
| 2026-04-28 16:50 | 40.09279 | 53.58014 | 34424 ft | 463 kts | 84° |
| 2026-04-28 16:50 | 40.09652 | 53.62140 | 34534 ft | 464 kts | 84° |
| 2026-04-28 16:50 | 40.10030 | 53.66343 | 34639 ft | 465 kts | 85° |
| 2026-04-28 16:51 | 40.10401 | 53.70497 | 34729 ft | 466 kts | 85° |
| 2026-04-28 16:51 | 40.11146 | 53.78869 | 34924 ft | 467 kts | 85° |
| 2026-04-28 16:52 | 40.11888 | 53.87280 | 35050 ft | 470 kts | 85° |
| 2026-04-28 16:52 | 40.12636 | 53.95830 | 35055 ft | 475 kts | 85° |
| 2026-04-28 16:53 | 40.13376 | 54.04375 | 35060 ft | 480 kts | 85° |
| 2026-04-28 16:53 | 40.14122 | 54.13055 | 35057 ft | 485 kts | 85° |
| 2026-04-28 16:54 | 40.14869 | 54.21816 | 35054 ft | 486 kts | 85° |
| 2026-04-28 16:54 | 40.15608 | 54.30551 | 35057 ft | 486 kts | 85° |
| 2026-04-28 16:55 | 40.16343 | 54.39352 | 35042 ft | 486 kts | 85° |
| 2026-04-28 16:55 | 40.17062 | 54.48042 | 35043 ft | 486 kts | 85° |
| 2026-04-28 16:56 | 40.17786 | 54.56845 | 35043 ft | 486 kts | 85° |
| 2026-04-28 16:56 | 40.18498 | 54.65582 | 35036 ft | 486 kts | 86° |
| 2026-04-28 16:57 | 40.19202 | 54.74316 | 35030 ft | 487 kts | 86° |
| 2026-04-28 16:57 | 40.19906 | 54.83136 | 35026 ft | 487 kts | 86° |
| 2026-04-28 16:58 | 40.20600 | 54.91920 | 35027 ft | 487 kts | 86° |
| 2026-04-28 16:58 | 40.21283 | 55.00661 | 35019 ft | 486 kts | 85° |
| 2026-04-28 16:59 | 40.21967 | 55.09462 | 35027 ft | 486 kts | 86° |
| 2026-04-28 16:59 | 40.22640 | 55.18223 | 35023 ft | 487 kts | 86° |
| 2026-04-28 17:00 | 40.23310 | 55.27016 | 35020 ft | 487 kts | 86° |
| 2026-04-28 17:00 | 40.23970 | 55.35798 | 35031 ft | 488 kts | 86° |
| 2026-04-28 17:01 | 40.24625 | 55.44592 | 35032 ft | 488 kts | 86° |
| 2026-04-28 17:01 | 40.25280 | 55.53445 | 35035 ft | 489 kts | 86° |
| 2026-04-28 17:02 | 40.25925 | 55.62293 | 35038 ft | 489 kts | 86° |
| 2026-04-28 17:02 | 40.26746 | 55.71070 | 35044 ft | 490 kts | 82° |
| 2026-04-28 17:03 | 40.29365 | 55.84041 | 35049 ft | 494 kts | 72° |
| 2026-04-28 17:03 | 40.31741 | 55.92443 | 35048 ft | 494 kts | 71° |
| 2026-04-28 17:04 | 40.35319 | 56.05030 | 35046 ft | 493 kts | 71° |
| 2026-04-28 17:05 | 40.38853 | 56.17630 | 35045 ft | 494 kts | 71° |
| 2026-04-28 17:06 | 40.42387 | 56.30298 | 35045 ft | 494 kts | 71° |
| 2026-04-28 17:06 | 40.45902 | 56.42966 | 35040 ft | 494 kts | 71° |
| 2026-04-28 17:07 | 40.48228 | 56.51384 | 35033 ft | 494 kts | 71° |
| 2026-04-28 17:07 | 40.50574 | 56.59896 | 35030 ft | 494 kts | 71° |
| 2026-04-28 17:08 | 40.52893 | 56.68347 | 35032 ft | 495 kts | 72° |
| 2026-04-28 17:08 | 40.55211 | 56.76838 | 35028 ft | 496 kts | 72° |
| 2026-04-28 17:09 | 40.57528 | 56.85355 | 35023 ft | 496 kts | 72° |
| 2026-04-28 17:09 | 40.59845 | 56.93887 | 35027 ft | 496 kts | 72° |
| 2026-04-28 17:10 | 40.62156 | 57.02423 | 35031 ft | 496 kts | 72° |
| 2026-04-28 17:10 | 40.64444 | 57.10913 | 35019 ft | 497 kts | 72° |
| 2026-04-28 17:11 | 40.66747 | 57.19518 | 35016 ft | 497 kts | 72° |
| 2026-04-28 17:11 | 40.69017 | 57.28024 | 35013 ft | 497 kts | 72° |
| 2026-04-28 17:12 | 40.71303 | 57.36618 | 35009 ft | 497 kts | 72° |
| 2026-04-28 17:12 | 40.73569 | 57.45158 | 35015 ft | 497 kts | 72° |
| 2026-04-28 17:13 | 40.75850 | 57.53783 | 35011 ft | 498 kts | 72° |
| 2026-04-28 17:13 | 40.78108 | 57.62357 | 35010 ft | 498 kts | 72° |
| 2026-04-28 17:14 | 40.80493 | 57.70937 | 35007 ft | 498 kts | 71° |
| 2026-04-28 17:14 | 40.82949 | 57.79475 | 35011 ft | 498 kts | 70° |
| 2026-04-28 17:15 | 40.85377 | 57.87973 | 35009 ft | 499 kts | 71° |
| 2026-04-28 17:15 | 40.87810 | 57.96550 | 35009 ft | 499 kts | 70° |
| 2026-04-28 17:16 | 40.90225 | 58.05104 | 35008 ft | 500 kts | 70° |
| 2026-04-28 17:16 | 40.92653 | 58.13731 | 35003 ft | 499 kts | 70° |
| 2026-04-28 17:17 | 40.95053 | 58.22294 | 34994 ft | 499 kts | 70° |
| 2026-04-28 17:17 | 40.97455 | 58.30889 | 34988 ft | 499 kts | 70° |
| 2026-04-28 17:18 | 40.99840 | 58.39452 | 34993 ft | 499 kts | 70° |
| 2026-04-28 17:18 | 41.02232 | 58.48076 | 34996 ft | 499 kts | 70° |
| 2026-04-28 17:19 | 41.04607 | 58.56664 | 34996 ft | 498 kts | 70° |
| 2026-04-28 17:19 | 41.06975 | 58.65257 | 34998 ft | 498 kts | 71° |
| 2026-04-28 17:20 | 41.08934 | 58.72385 | 34999 ft | 498 kts | 71° |
| 2026-04-28 17:20 | 41.11682 | 58.82426 | 34996 ft | 499 kts | 71° |
| 2026-04-28 17:21 | 41.14050 | 58.91101 | 34990 ft | 499 kts | 71° |
| 2026-04-28 17:22 | 41.17556 | 59.04010 | 34993 ft | 499 kts | 71° |
| 2026-04-28 17:22 | 41.19890 | 59.12639 | 34994 ft | 499 kts | 71° |
| 2026-04-28 17:23 | 41.23397 | 59.25662 | 34994 ft | 500 kts | 71° |
| 2026-04-28 17:23 | 41.25713 | 59.34298 | 34994 ft | 499 kts | 71° |
| 2026-04-28 17:24 | 41.28029 | 59.42961 | 34996 ft | 500 kts | 71° |
| 2026-04-28 17:24 | 41.29961 | 59.50216 | 34994 ft | 500 kts | 71° |